createdAt,value
2019-04-10T00:02:25.870Z,3.30
2019-04-10T00:04:59.801Z,3.30
2019-04-10T00:07:33.698Z,3.03
2019-04-10T00:10:07.871Z,3.53
2019-04-10T00:12:42.264Z,2.90
2019-04-10T00:15:18.811Z,3.63
2019-04-10T00:17:53.518Z,3.33
2019-04-10T00:20:28.733Z,3.33
2019-04-10T00:23:03.163Z,2.73
2019-04-10T00:25:37.166Z,3.30
2019-04-10T00:28:11.691Z,3.30
2019-04-10T00:30:46.300Z,3.70
2019-04-10T00:33:19.153Z,3.57
2019-04-10T00:35:53.902Z,3.80
2019-04-10T00:38:27.666Z,3.73
2019-04-10T00:41:01.420Z,4.07
2019-04-10T00:43:35.055Z,4.47
2019-04-10T00:46:08.733Z,3.70
2019-04-10T00:48:42.554Z,3.90
2019-04-10T00:51:37.970Z,3.93
2019-04-10T00:54:24.049Z,3.93
2019-04-10T00:57:17.458Z,4.50
2019-04-10T00:59:56.717Z,4.43
2019-04-10T01:02:30.443Z,3.73
2019-04-10T01:05:03.949Z,4.10
2019-04-10T01:07:41.181Z,3.70
2019-04-10T01:10:26.065Z,4.03
2019-04-10T01:13:00.870Z,3.67
2019-04-10T01:15:46.887Z,4.07
2019-04-10T01:18:21.347Z,4.30
2019-04-10T01:21:01.966Z,4.13
2019-04-10T01:23:35.269Z,4.10
2019-04-10T01:26:09.245Z,4.07
2019-04-10T01:28:42.564Z,4.17
2019-04-10T01:31:17.070Z,4.50
2019-04-10T01:33:50.373Z,4.10
2019-04-10T01:36:52.442Z,4.20
2019-04-10T01:39:40.183Z,4.40
2019-04-10T01:42:14.546Z,4.20
2019-04-10T01:44:51.430Z,4.53
2019-04-10T01:47:26.915Z,4.63
2019-04-10T01:50:00.692Z,4.23
2019-04-10T01:52:35.144Z,4.40
2019-04-10T01:55:21.352Z,4.37
2019-04-10T01:57:46.361Z,4.27
2019-04-10T02:00:21.780Z,4.67
2019-04-10T02:03:14.642Z,4.60
2019-04-10T02:05:49.178Z,4.77
2019-04-10T02:08:42.331Z,4.80
2019-04-10T02:11:17.436Z,5.03
2019-04-10T02:13:51.792Z,4.73
2019-04-10T02:16:25.639Z,5.00
2019-04-10T02:18:59.597Z,5.00
2019-04-10T02:21:36.266Z,4.93
2019-04-10T02:24:11.092Z,5.10
2019-04-10T02:26:51.883Z,4.47
2019-04-10T02:29:26.168Z,4.50
2019-04-10T02:32:04.011Z,4.23
2019-04-10T02:34:57.707Z,4.63
2019-04-10T02:37:33.194Z,3.93
2019-04-10T02:40:19.339Z,4.60
2019-04-10T02:42:54.706Z,4.27
2019-04-10T02:45:28.485Z,4.50
2019-04-10T02:48:04.032Z,4.50
2019-04-10T02:50:51.353Z,4.20
2019-04-10T02:53:25.632Z,4.30
2019-04-10T02:56:00.406Z,4.80
2019-04-10T02:58:51.606Z,4.50
2019-04-10T03:01:25.206Z,4.13
2019-04-10T03:03:59.328Z,4.63
2019-04-10T03:06:45.074Z,4.23
2019-04-10T03:09:32.630Z,4.07
2019-04-10T03:11:55.414Z,4.30
2019-04-10T03:14:29.213Z,4.37
2019-04-10T03:17:06.012Z,4.17
2019-04-10T03:20:20.493Z,4.60
2019-04-10T03:22:57.348Z,4.53
2019-04-10T03:25:30.955Z,4.27
2019-04-10T03:28:05.093Z,4.30
2019-04-10T03:30:39.475Z,4.00
2019-04-10T03:33:45.439Z,4.30
2019-04-10T03:36:41.889Z,4.07
2019-04-10T03:39:17.400Z,4.53
2019-04-10T03:41:52.616Z,4.47
2019-04-10T03:44:28.391Z,4.37
2019-04-10T03:47:15.363Z,4.63
2019-04-10T03:50:02.680Z,4.70
2019-04-10T03:52:37.810Z,4.37
2019-04-10T03:55:12.553Z,4.13
2019-04-10T03:57:47.106Z,4.40
2019-04-10T04:00:22.548Z,4.33
2019-04-10T04:03:08.558Z,4.30
2019-04-10T04:05:42.863Z,4.67
2019-04-10T04:08:16.686Z,4.33
2019-04-10T04:10:51.297Z,4.90
2019-04-10T04:13:39.710Z,4.03
2019-04-10T04:16:14.956Z,4.10
2019-04-10T04:18:49.240Z,4.53
2019-04-10T04:21:37.444Z,4.70
2019-04-10T04:24:11.635Z,4.50
2019-04-10T04:26:59.023Z,4.87
2019-04-10T04:29:34.685Z,4.53
2019-04-10T04:32:25.874Z,4.73
2019-04-10T04:35:11.423Z,4.67
2019-04-10T04:37:48.582Z,5.27
2019-04-10T04:40:23.823Z,4.67
2019-04-10T04:42:58.358Z,4.73
2019-04-10T04:45:46.339Z,4.90
2019-04-10T04:48:28.352Z,4.70
2019-04-10T04:51:21.936Z,5.43
2019-04-10T04:53:58.917Z,4.93
2019-04-10T04:56:33.790Z,5.00
2019-04-10T04:59:20.525Z,5.60
2019-04-10T05:01:57.057Z,4.30
2019-04-10T05:04:35.593Z,5.90
2019-04-10T05:07:10.385Z,4.93
2019-04-10T05:09:44.475Z,4.73
2019-04-10T05:12:20.210Z,5.33
2019-04-10T05:15:09.401Z,4.73
2019-04-10T05:18:19.064Z,5.50
2019-04-10T05:21:05.213Z,4.67
2019-04-10T05:23:50.009Z,5.00
2019-04-10T05:39:52.595Z,4.57
2019-04-10T05:42:45.444Z,4.27
2019-04-10T05:45:19.819Z,4.23
2019-04-10T05:47:54.774Z,4.93
2019-04-10T05:50:29.851Z,4.90
2019-04-10T05:53:04.363Z,4.60
2019-04-10T05:55:55.867Z,4.60
2019-04-10T05:58:29.991Z,4.77
2019-04-10T06:01:05.456Z,5.00
2019-04-10T06:03:39.308Z,4.47
2019-04-10T06:06:14.558Z,5.63
2019-04-10T06:08:49.079Z,4.70
2019-04-10T06:11:24.603Z,4.70
2019-04-10T06:13:59.383Z,4.80
2019-04-10T06:16:34.313Z,5.00
2019-04-10T06:19:07.458Z,5.17
2019-04-10T06:21:40.973Z,5.53
2019-04-10T06:24:16.210Z,5.17
2019-04-10T06:27:32.422Z,5.43
2019-04-10T06:30:07.882Z,5.73
2019-04-10T06:32:43.104Z,4.90
2019-04-10T06:35:17.350Z,5.37
2019-04-10T06:37:52.555Z,5.10
2019-04-10T06:40:28.760Z,5.67
2019-04-10T06:43:04.335Z,5.57
2019-04-10T06:45:57.845Z,5.80
2019-04-10T06:48:32.600Z,5.80
2019-04-10T06:51:06.868Z,6.67
2019-04-10T06:53:41.452Z,6.50
2019-04-10T06:56:16.674Z,6.13
2019-04-10T06:58:52.005Z,6.47
2019-04-10T07:01:39.313Z,7.07
2019-04-10T07:04:25.107Z,7.50
2019-04-10T07:07:03.060Z,7.30
2019-04-10T07:09:33.858Z,8.13
2019-04-10T07:12:10.095Z,7.63
2019-04-10T07:14:48.308Z,7.77
2019-04-10T07:17:41.212Z,7.23
2019-04-10T07:20:29.517Z,7.77
2019-04-10T07:23:03.711Z,7.47
2019-04-10T07:25:40.324Z,7.83
2019-04-10T07:28:13.636Z,7.73
2019-04-10T07:31:05.002Z,8.10
2019-04-10T07:33:35.258Z,7.83
2019-04-10T07:36:12.603Z,7.53
2019-04-10T07:39:03.420Z,7.20
2019-04-10T07:41:39.716Z,8.07
2019-04-10T07:44:25.836Z,8.17
2019-04-10T07:47:00.849Z,7.83
2019-04-10T07:49:38.040Z,8.07
2019-04-10T07:52:11.246Z,7.90
2019-04-10T07:54:45.410Z,8.17
2019-04-10T07:57:28.868Z,7.53
2019-04-10T08:00:03.210Z,7.50
2019-04-10T08:02:55.653Z,7.50
2019-04-10T08:05:29.853Z,7.47
2019-04-10T08:08:15.457Z,7.20
2019-04-10T08:11:15.478Z,7.73
2019-04-10T08:13:51.171Z,7.53
2019-04-10T08:16:25.376Z,7.57
2019-04-10T08:18:59.892Z,7.57
2019-04-10T08:21:38.896Z,7.27
2019-04-10T08:24:32.223Z,7.50
2019-04-10T08:27:23.078Z,7.10
2019-04-10T08:30:10.998Z,6.77
2019-04-10T08:32:54.927Z,6.40
2019-04-10T08:35:20.874Z,6.17
2019-04-10T08:38:07.751Z,7.07
2019-04-10T08:40:42.298Z,6.80
2019-04-10T08:43:37.450Z,5.97
2019-04-10T08:46:22.264Z,6.53
2019-04-10T08:49:30.488Z,6.60
2019-04-10T08:52:16.605Z,6.13
2019-04-10T08:54:51.189Z,5.80
2019-04-10T08:57:45.901Z,6.37
2019-04-10T09:00:37.870Z,6.27
2019-04-10T09:03:31.346Z,5.93
2019-04-10T09:06:04.581Z,6.13
2019-04-10T09:08:57.196Z,6.10
2019-04-10T09:11:49.481Z,6.30
2019-04-10T09:14:23.129Z,6.50
2019-04-10T09:17:15.357Z,5.70
2019-04-10T09:19:49.844Z,5.70
2019-04-10T09:23:06.667Z,5.27
2019-04-10T09:25:27.738Z,5.60
2019-04-10T09:28:19.803Z,5.63
2019-04-10T09:31:05.198Z,4.80
2019-04-10T09:33:40.166Z,4.77
2019-04-10T09:36:26.952Z,5.60
2019-04-10T09:39:01.264Z,4.57
2019-04-10T09:41:54.391Z,4.33
2019-04-10T09:44:46.546Z,5.37
2019-04-10T09:47:32.519Z,4.83
2019-04-10T09:50:07.999Z,4.43
2019-04-10T09:52:54.524Z,4.73
2019-04-10T09:55:29.776Z,5.60
2019-04-10T09:58:03.565Z,5.83
2019-04-10T10:00:38.348Z,5.47
2019-04-10T10:03:12.353Z,5.20
2019-04-10T10:05:46.691Z,5.50
2019-04-10T10:08:31.877Z,5.10
2019-04-10T10:11:07.105Z,5.10
2019-04-10T10:13:42.046Z,4.73
2019-04-10T10:16:16.984Z,4.40
2019-04-10T10:18:51.979Z,4.80
2019-04-10T10:21:37.259Z,4.67
2019-04-10T10:24:11.291Z,3.97
2019-04-10T10:26:55.982Z,4.30
2019-04-10T10:29:48.451Z,4.43
2019-04-10T10:32:22.593Z,4.03
2019-04-10T10:34:56.419Z,3.97
2019-04-10T10:37:30.543Z,4.30
2019-04-10T10:40:05.557Z,3.97
2019-04-10T10:42:53.926Z,4.67
2019-04-10T10:45:27.009Z,4.00
2019-04-10T10:48:01.319Z,4.43
2019-04-10T10:50:53.324Z,4.40
2019-04-10T10:53:28.272Z,4.20
2019-04-10T10:56:02.861Z,4.10
2019-04-10T10:58:48.853Z,3.90
2019-04-10T11:01:24.147Z,4.00
2019-04-10T11:03:59.832Z,3.93
2019-04-10T11:06:33.741Z,4.27
2019-04-10T11:09:12.677Z,3.97
2019-04-10T11:12:06.545Z,4.03
2019-04-10T11:14:40.995Z,4.10
2019-04-10T11:17:15.757Z,3.87
2019-04-10T11:19:51.266Z,3.87
2019-04-10T11:22:29.780Z,4.43
2019-04-10T11:25:03.835Z,4.37
2019-04-10T11:27:50.156Z,4.50
2019-04-10T11:30:36.325Z,4.40
2019-04-10T11:33:15.079Z,4.43
2019-04-10T11:35:49.452Z,4.17
2019-04-10T11:38:25.886Z,4.70
2019-04-10T11:41:00.192Z,4.53
2019-04-10T11:43:36.236Z,3.80
2019-04-10T11:46:22.721Z,4.20
2019-04-10T11:48:57.050Z,4.30
2019-04-10T11:51:32.359Z,3.90
2019-04-10T11:54:10.986Z,3.90
2019-04-10T11:56:43.036Z,4.00
2019-04-10T11:59:23.037Z,4.10
2019-04-10T12:02:00.715Z,4.10
2019-04-10T12:04:43.550Z,3.80
2019-04-10T12:07:09.791Z,4.07
2019-04-10T12:12:48.448Z,4.00
2019-04-10T12:15:34.400Z,4.27
2019-04-10T12:18:08.705Z,4.07
2019-04-10T12:20:55.496Z,4.20
2019-04-10T12:23:29.477Z,4.50
2019-04-10T12:26:03.716Z,4.17
2019-04-10T12:28:55.082Z,4.70
2019-04-10T12:31:28.788Z,4.00
2019-04-10T12:34:03.295Z,4.03
2019-04-10T12:36:49.225Z,4.10
2019-04-10T12:39:23.180Z,4.10
2019-04-10T12:41:57.545Z,4.07
2019-04-10T12:44:42.780Z,4.03
2019-04-10T12:47:30.024Z,3.80
2019-04-10T12:50:21.007Z,3.67
2019-04-10T12:52:55.108Z,3.63
2019-04-10T12:55:49.428Z,4.23
2019-04-10T12:58:40.863Z,3.90
2019-04-10T13:01:26.908Z,4.00
2019-04-10T13:04:12.245Z,4.10
2019-04-10T13:06:46.437Z,3.93
2019-04-10T13:09:33.780Z,4.00
2019-04-10T13:12:07.144Z,4.07
2019-04-10T13:14:52.380Z,4.37
2019-04-10T13:17:38.589Z,4.20
2019-04-10T13:20:13.618Z,4.33
2019-04-10T13:23:00.374Z,4.10
2019-04-10T13:25:55.473Z,3.67
2019-04-10T13:28:32.218Z,4.10
2019-04-10T13:31:17.269Z,3.80
2019-04-10T13:33:51.583Z,3.37
2019-04-10T13:36:48.634Z,3.50
2019-04-10T13:39:22.578Z,3.70
2019-04-10T13:41:56.876Z,3.70
2019-04-10T13:44:35.864Z,3.60
2019-04-10T13:47:11.296Z,3.20
2019-04-10T13:49:46.323Z,3.70
2019-04-10T13:52:20.342Z,3.20
2019-04-10T13:55:17.126Z,3.60
2019-04-10T13:57:52.998Z,3.60
2019-04-10T14:00:41.014Z,3.60
2019-04-10T14:03:14.832Z,3.53
2019-04-10T14:05:50.785Z,3.90
2019-04-10T14:08:41.564Z,3.90
2019-04-10T14:11:02.665Z,3.70
2019-04-10T14:13:48.372Z,3.50
2019-04-10T14:16:22.456Z,3.57
2019-04-10T14:19:09.535Z,3.43
2019-04-10T14:21:59.702Z,3.70
2019-04-10T14:24:42.877Z,3.70
2019-04-10T14:27:14.628Z,3.47
2019-04-10T14:29:53.209Z,3.90
2019-04-10T14:32:35.662Z,3.50
2019-04-10T14:35:20.691Z,3.77
2019-04-10T14:37:54.654Z,3.40
2019-04-10T14:40:40.783Z,3.47
2019-04-10T14:43:26.492Z,3.70
2019-04-10T14:46:00.279Z,3.80
2019-04-10T14:48:34.233Z,3.60
2019-04-10T14:51:08.129Z,3.90
2019-04-10T14:53:41.952Z,3.60
2019-04-10T14:56:28.371Z,3.40
2019-04-10T14:59:03.866Z,3.57
2019-04-10T15:01:38.177Z,3.33
2019-04-10T15:04:22.719Z,3.57
2019-04-10T15:07:14.271Z,3.57
2019-04-10T15:09:47.954Z,3.30
2019-04-10T15:12:22.632Z,3.20
2019-04-10T15:15:04.157Z,3.57
2019-04-10T15:17:38.265Z,3.37
2019-04-10T15:20:13.250Z,3.30
2019-04-10T15:22:47.716Z,3.30
2019-04-10T15:25:33.261Z,3.90
2019-04-10T15:28:16.105Z,4.00
2019-04-10T15:31:26.366Z,3.50
2019-04-10T15:34:18.326Z,3.70
2019-04-10T15:36:52.868Z,3.30
2019-04-10T15:39:33.913Z,3.60
2019-04-10T15:42:03.629Z,3.40
2019-04-10T15:44:38.416Z,3.67
2019-04-10T15:47:22.173Z,3.63
2019-04-10T15:50:04.804Z,3.60
2019-04-10T15:52:39.799Z,3.53
2019-04-10T15:55:24.408Z,3.63
2019-04-10T15:58:15.615Z,3.80
2019-04-10T16:01:01.454Z,3.47
2019-04-10T16:03:38.694Z,3.20
2019-04-10T16:06:13.272Z,3.40
2019-04-10T16:08:46.832Z,3.50
2019-04-10T16:11:56.279Z,3.13
2019-04-10T16:14:31.660Z,3.60
2019-04-10T16:17:37.587Z,3.50
2019-04-10T16:20:25.295Z,3.67
2019-04-10T16:23:28.637Z,3.47
2019-04-10T16:26:39.284Z,3.30
2019-04-10T16:29:18.648Z,3.30
2019-04-10T16:32:00.116Z,3.53
2019-04-10T16:34:34.775Z,3.60
2019-04-10T16:37:22.190Z,3.53
2019-04-10T16:40:01.729Z,3.80
2019-04-10T16:42:32.772Z,3.43
2019-04-10T16:45:08.057Z,3.33
2019-04-10T16:47:42.776Z,3.40
2019-04-10T16:50:32.314Z,3.67
2019-04-10T16:53:06.441Z,3.30
2019-04-10T16:55:53.391Z,3.40
2019-04-10T16:58:41.150Z,3.90
2019-04-10T17:01:15.926Z,3.77
2019-04-10T17:03:52.296Z,3.50
2019-04-10T17:06:28.266Z,3.60
2019-04-10T17:09:06.650Z,3.43
2019-04-10T18:02:09.725Z,3.70
2019-04-10T18:04:44.202Z,4.30
2019-04-10T19:05:17.174Z,3.50
2019-04-10T19:07:50.759Z,3.80
2019-04-10T19:10:23.692Z,3.87
2019-04-10T19:12:59.418Z,4.33
2019-04-10T19:15:34.999Z,4.47
2019-04-10T19:47:26.316Z,3.30
2019-04-10T19:50:01.443Z,3.00
2019-04-10T19:52:48.663Z,3.30
2019-04-10T19:55:22.356Z,3.37
2019-04-10T19:57:56.176Z,3.10
2019-04-10T20:04:08.187Z,3.10
2019-04-10T20:06:42.595Z,3.33
2019-04-10T20:09:16.605Z,3.30
2019-04-10T20:11:54.275Z,3.50
2019-04-10T20:14:25.266Z,3.67
2019-04-10T20:16:59.749Z,3.10
2019-04-10T20:19:34.858Z,3.63
2019-04-10T20:43:30.560Z,3.83
2019-04-10T20:46:05.203Z,3.90
